METAR Data
IDs: Format: Raw Decoded Include TAF

Data at: 1522 UTC 27 Nov 2021

KRDU 271451Z VRB05KT 10SM FEW170 05/M08 A3014 RMK AO2 SLP207 T00501078 51014

KRDU 271136Z 2712/2812 VRB05KT P6SM BKN200
  FM271700 25006KT P6SM SCT150
  FM272200 VRB04KT P6SM SKC